createdAt,value
2018-03-18T00:00:44.007Z,-1.00
2018-03-18T00:03:11.729Z,-1.00
2018-03-18T00:05:40.182Z,-1.10
2018-03-18T00:08:07.839Z,-1.10
2018-03-18T00:10:35.530Z,-1.10
2018-03-18T00:13:03.995Z,-1.20
2018-03-18T00:15:32.436Z,-1.20
2018-03-18T00:18:00.160Z,-1.20
2018-03-18T00:20:27.860Z,-1.20
2018-03-18T00:22:55.552Z,-1.20
2018-03-18T00:25:23.212Z,-1.20
2018-03-18T00:27:50.904Z,-1.20
2018-03-18T00:30:18.932Z,-1.20
2018-03-18T00:32:46.612Z,-1.10
2018-03-18T00:35:15.056Z,-1.10
2018-03-18T00:37:42.737Z,-1.20
2018-03-18T00:40:10.434Z,-1.20
2018-03-18T00:42:38.161Z,-1.20
2018-03-18T00:45:05.854Z,-1.20
2018-03-18T00:47:33.619Z,-1.20
2018-03-18T00:50:02.045Z,-1.20
2018-03-18T00:52:30.525Z,-1.20
2018-03-18T00:54:58.251Z,-1.20
2018-03-18T00:57:25.933Z,-1.20
2018-03-18T00:59:53.574Z,-1.20
2018-03-18T01:02:21.290Z,-1.20
2018-03-18T01:04:48.980Z,-1.30
2018-03-18T01:07:16.738Z,-1.30
2018-03-18T01:09:44.421Z,-1.30
2018-03-18T01:12:12.171Z,-1.30
2018-03-18T01:14:39.824Z,-1.30
2018-03-18T01:17:07.536Z,-1.30
2018-03-18T01:19:35.260Z,-1.30
2018-03-18T01:22:02.927Z,-1.30
2018-03-18T01:24:30.627Z,-1.30
2018-03-18T01:26:58.384Z,-1.30
2018-03-18T01:29:26.048Z,-1.30
2018-03-18T01:31:53.785Z,-1.40
2018-03-18T01:34:21.534Z,-1.40
2018-03-18T01:36:49.981Z,-1.50
2018-03-18T01:39:18.460Z,-1.50
2018-03-18T01:41:46.937Z,-1.50
2018-03-18T01:44:15.348Z,-1.50
2018-03-18T01:46:43.019Z,-1.50
2018-03-18T01:49:10.728Z,-1.50
2018-03-18T01:51:39.131Z,-1.50
2018-03-18T01:54:06.827Z,-1.50
2018-03-18T01:56:34.500Z,-1.50
2018-03-18T01:59:02.158Z,-1.60
2018-03-18T02:01:29.852Z,-1.60
2018-03-18T02:03:58.308Z,-1.60
2018-03-18T02:06:25.983Z,-1.60
2018-03-18T02:08:53.682Z,-1.60
2018-03-18T02:11:21.380Z,-1.60
2018-03-18T02:13:49.043Z,-1.50
2018-03-18T02:16:16.710Z,-1.50
2018-03-18T02:18:44.384Z,-1.60
2018-03-18T02:21:12.048Z,-1.60
2018-03-18T02:23:39.743Z,-1.60
2018-03-18T02:26:07.432Z,-1.60
2018-03-18T02:28:35.099Z,-1.60
2018-03-18T02:31:02.807Z,-1.70
2018-03-18T02:33:31.247Z,-1.70
2018-03-18T02:35:58.910Z,-1.70
2018-03-18T02:38:26.586Z,-1.70
2018-03-18T02:40:57.891Z,-1.70
2018-03-18T02:43:27.049Z,-1.70
2018-03-18T02:45:57.852Z,-1.90
2018-03-18T02:48:25.833Z,-1.90
2018-03-18T02:50:53.577Z,-1.90
2018-03-18T02:53:22.452Z,-1.90
2018-03-18T02:55:56.023Z,-2.00
2018-03-18T02:58:26.005Z,-2.00
2018-03-18T03:00:57.831Z,-2.00
2018-03-18T03:03:32.315Z,-2.00
2018-03-18T03:06:09.843Z,-2.00
2018-03-18T03:08:39.274Z,-2.00
2018-03-18T03:11:08.752Z,-2.10
2018-03-18T03:13:41.118Z,-2.20
2018-03-18T03:16:15.653Z,-2.30
2018-03-18T03:18:47.456Z,-2.40
2018-03-18T03:21:16.808Z,-2.40
2018-03-18T03:23:49.172Z,-2.30
2018-03-18T03:26:24.764Z,-2.30
2018-03-18T03:28:56.671Z,-2.30
2018-03-18T03:31:27.145Z,-2.30
2018-03-18T03:33:55.200Z,-2.40
2018-03-18T03:36:28.844Z,-2.40
2018-03-18T03:38:56.935Z,-2.40
2018-03-18T03:41:27.252Z,-2.40
2018-03-18T03:43:56.101Z,-2.30
2018-03-18T03:46:27.031Z,-2.30
2018-03-18T03:49:18.031Z,-2.40
2018-03-18T03:52:10.390Z,-2.40
2018-03-18T03:57:33.517Z,-2.40
2018-03-18T04:00:17.235Z,-2.40
2018-03-18T04:02:46.043Z,-2.40
2018-03-18T04:05:13.703Z,-2.50
2018-03-18T04:07:41.355Z,-2.60
2018-03-18T04:10:09.047Z,-2.60
2018-03-18T04:12:37.520Z,-2.70
2018-03-18T04:15:05.975Z,-2.80
2018-03-18T04:17:33.656Z,-2.80
2018-03-18T04:20:02.117Z,-2.80
2018-03-18T04:22:29.806Z,-2.80
2018-03-18T04:24:58.267Z,-2.70
2018-03-18T04:27:25.960Z,-2.70
2018-03-18T04:29:53.645Z,-2.70
2018-03-18T04:32:21.335Z,-2.70
2018-03-18T04:34:49.028Z,-2.70
2018-03-18T04:37:17.432Z,-2.70
2018-03-18T04:39:45.158Z,-2.80
2018-03-18T04:42:13.609Z,-2.70
2018-03-18T04:44:41.260Z,-2.70
2018-03-18T04:47:08.952Z,-2.70
2018-03-18T04:49:36.628Z,-2.80
2018-03-18T04:52:05.125Z,-2.90
2018-03-18T04:54:32.824Z,-2.90
2018-03-18T04:57:00.513Z,-2.90
2018-03-18T04:59:28.176Z,-2.90
2018-03-18T05:01:55.893Z,-2.90
2018-03-18T05:04:23.584Z,-2.90
2018-03-18T05:06:51.214Z,-3.00
2018-03-18T05:09:19.000Z,-3.00
2018-03-18T05:11:46.669Z,-2.90
2018-03-18T05:14:14.336Z,-3.00
2018-03-18T05:16:42.033Z,-3.10
2018-03-18T05:19:09.735Z,-3.00
2018-03-18T05:21:37.435Z,-3.10
2018-03-18T05:24:05.202Z,-3.00
2018-03-18T05:26:33.635Z,-3.00
2018-03-18T05:29:01.276Z,-3.00
2018-03-18T05:31:28.999Z,-3.00
2018-03-18T05:33:57.470Z,-3.00
2018-03-18T05:36:25.108Z,-3.10
2018-03-18T05:38:52.882Z,-3.10
2018-03-18T05:41:20.574Z,-3.10
2018-03-18T05:43:48.211Z,-3.10
2018-03-18T05:46:16.671Z,-3.20
2018-03-18T05:48:44.353Z,-3.20
2018-03-18T05:51:12.801Z,-3.20
2018-03-18T05:53:40.488Z,-3.30
2018-03-18T05:56:08.160Z,-3.30
2018-03-18T05:58:36.583Z,-3.40
2018-03-18T06:01:04.271Z,-3.40
2018-03-18T06:03:31.966Z,-3.30
2018-03-18T06:06:00.393Z,-3.40
2018-03-18T06:08:28.090Z,-3.40
2018-03-18T06:10:55.759Z,-3.40
2018-03-18T06:13:23.404Z,-3.30
2018-03-18T06:15:51.091Z,-3.30
2018-03-18T06:18:18.771Z,-3.20
2018-03-18T06:20:46.445Z,-3.30
2018-03-18T06:23:14.144Z,-3.20
2018-03-18T06:25:42.493Z,-3.10
2018-03-18T06:28:10.842Z,-3.20
2018-03-18T06:30:38.559Z,-3.20
2018-03-18T06:33:06.248Z,-3.30
2018-03-18T06:35:34.565Z,-3.40
2018-03-18T06:38:02.244Z,-3.30
2018-03-18T06:40:29.966Z,-3.20
2018-03-18T06:42:57.648Z,-3.20
2018-03-18T06:45:25.402Z,-3.20
2018-03-18T06:47:53.108Z,-3.30
2018-03-18T06:50:20.785Z,-3.30
2018-03-18T06:52:48.475Z,-3.30
2018-03-18T06:55:16.271Z,-3.30
2018-03-18T06:57:44.360Z,-3.30
2018-03-18T07:00:12.819Z,-3.30
2018-03-18T07:02:40.499Z,-3.30
2018-03-18T07:05:08.140Z,-3.30
2018-03-18T07:07:35.809Z,-3.40
2018-03-18T07:10:03.578Z,-3.40
2018-03-18T07:12:31.301Z,-3.40
2018-03-18T07:14:58.999Z,-3.30
2018-03-18T07:17:26.682Z,-3.40
2018-03-18T07:19:54.340Z,-3.40
2018-03-18T07:22:22.008Z,-3.40
2018-03-18T07:24:50.468Z,-3.40
2018-03-18T07:27:18.928Z,-3.30
2018-03-18T07:29:46.607Z,-3.40
2018-03-18T07:32:15.087Z,-3.40
2018-03-18T07:34:42.745Z,-3.40
2018-03-18T07:37:10.487Z,-3.30
2018-03-18T07:39:38.212Z,-3.20
2018-03-18T07:42:06.148Z,-3.30
2018-03-18T07:44:33.870Z,-3.40
2018-03-18T07:47:01.572Z,-3.40
2018-03-18T07:49:29.216Z,-3.40
2018-03-18T07:51:56.920Z,-3.40
2018-03-18T07:54:24.621Z,-3.40
2018-03-18T07:56:52.309Z,-3.40
2018-03-18T07:59:20.090Z,-3.40
2018-03-18T08:01:47.811Z,-3.40
2018-03-18T08:04:15.488Z,-3.30
2018-03-18T08:06:43.170Z,-3.40
2018-03-18T08:09:11.643Z,-3.40
2018-03-18T08:11:40.052Z,-3.30
2018-03-18T08:14:07.736Z,-3.40
2018-03-18T08:16:35.439Z,-3.40
2018-03-18T08:19:03.876Z,-3.40
2018-03-18T08:21:31.661Z,-3.40
2018-03-18T08:23:59.375Z,-3.60
2018-03-18T08:26:27.038Z,-3.50
2018-03-18T08:28:54.716Z,-3.60
2018-03-18T08:31:22.430Z,-3.60
2018-03-18T08:33:50.896Z,-3.40
2018-03-18T08:36:19.486Z,-3.30
2018-03-18T08:38:47.944Z,-3.20
2018-03-18T08:41:15.591Z,-3.20
2018-03-18T08:43:43.280Z,-3.20
2018-03-18T08:46:11.785Z,-3.00
2018-03-18T08:48:39.450Z,-3.00
2018-03-18T08:51:07.172Z,-2.90
2018-03-18T08:53:36.749Z,-2.60
2018-03-18T08:56:10.191Z,-2.30
2018-03-18T08:58:41.734Z,-2.20
2018-03-18T09:01:10.364Z,-2.20
2018-03-18T09:03:38.091Z,-2.30
2018-03-18T09:06:08.758Z,-2.40
2018-03-18T09:08:36.452Z,-2.40
2018-03-18T09:11:04.151Z,-2.60
2018-03-18T09:13:31.816Z,-2.80
2018-03-18T09:15:59.479Z,-2.90
2018-03-18T09:18:27.246Z,-2.80
2018-03-18T09:20:54.891Z,-2.70
2018-03-18T09:23:24.533Z,-2.70
2018-03-18T09:25:52.236Z,-2.70
2018-03-18T09:28:19.912Z,-2.50
2018-03-18T09:30:49.310Z,-2.50
2018-03-18T09:33:17.792Z,-2.70
2018-03-18T09:35:46.243Z,-2.90
2018-03-18T09:38:13.960Z,-2.90
2018-03-18T09:40:41.711Z,-3.10
2018-03-18T09:43:09.444Z,-3.10
2018-03-18T09:45:37.904Z,-2.80
2018-03-18T09:48:05.562Z,-2.80
2018-03-18T09:50:33.271Z,-2.70
2018-03-18T09:53:00.965Z,-2.50
2018-03-18T09:55:28.614Z,-2.60
2018-03-18T09:57:56.325Z,-2.60
2018-03-18T10:00:24.040Z,-2.50
2018-03-18T10:02:51.714Z,-2.60
2018-03-18T10:05:19.476Z,-2.60
2018-03-18T10:07:47.156Z,-2.70
2018-03-18T10:10:14.860Z,-2.50
2018-03-18T10:12:42.567Z,-2.50
2018-03-18T10:15:10.264Z,-2.60
2018-03-18T10:17:37.917Z,-2.50
2018-03-18T10:20:06.448Z,-2.50
2018-03-18T10:22:34.128Z,-2.50
2018-03-18T10:25:01.792Z,-2.20
2018-03-18T10:27:29.529Z,-2.10
2018-03-18T10:29:57.203Z,-2.00
2018-03-18T10:32:24.887Z,-2.00
2018-03-18T10:34:52.653Z,-1.90
2018-03-18T10:37:20.314Z,-2.00
2018-03-18T10:39:47.982Z,-1.70
2018-03-18T10:42:16.436Z,-1.60
2018-03-18T10:44:44.104Z,-1.70
2018-03-18T10:47:11.853Z,-1.60
2018-03-18T10:49:40.279Z,-1.70
2018-03-18T10:52:07.951Z,-1.70
2018-03-18T10:54:35.636Z,-1.70
2018-03-18T10:57:03.334Z,-1.80
2018-03-18T10:59:31.008Z,-1.70
2018-03-18T11:02:04.977Z,-1.70
2018-03-18T11:04:32.690Z,-1.70
2018-03-18T11:07:00.348Z,-1.70
2018-03-18T11:09:28.799Z,-1.50
2018-03-18T11:11:56.545Z,-1.50
2018-03-18T11:14:24.246Z,-1.60
2018-03-18T11:16:52.696Z,-1.40
2018-03-18T11:19:20.444Z,-1.40
2018-03-18T11:21:48.139Z,-1.30
2018-03-18T11:24:16.664Z,-1.60
2018-03-18T11:26:44.392Z,-1.60
2018-03-18T11:29:12.818Z,-1.40
2018-03-18T11:31:40.512Z,-1.40
2018-03-18T11:34:08.302Z,-1.40
2018-03-18T11:36:36.744Z,-1.50
2018-03-18T11:39:04.540Z,-1.50
2018-03-18T11:41:32.984Z,-1.60
2018-03-18T11:44:00.679Z,-1.60
2018-03-18T11:46:29.132Z,-1.70
2018-03-18T11:48:56.851Z,-1.70
2018-03-18T11:51:24.561Z,-1.60
2018-03-18T11:53:52.291Z,-1.70
2018-03-18T11:56:20.058Z,-1.90
2018-03-18T11:58:47.685Z,-1.70
2018-03-18T12:01:15.396Z,-1.70
2018-03-18T12:03:43.064Z,-1.50
2018-03-18T12:06:10.754Z,-1.30
2018-03-18T12:08:50.014Z,-1.30
2018-03-18T12:11:18.514Z,-1.30
2018-03-18T12:13:46.186Z,-1.30
2018-03-18T12:16:13.896Z,-1.30
2018-03-18T12:18:41.718Z,-1.30
2018-03-18T12:21:09.417Z,-1.30
2018-03-18T12:23:37.109Z,-1.40
2018-03-18T12:26:04.848Z,-1.30
2018-03-18T12:28:32.499Z,-1.30
2018-03-18T12:31:00.241Z,-1.50
2018-03-18T12:33:28.683Z,-1.60
2018-03-18T12:35:56.340Z,-1.60
2018-03-18T12:38:24.032Z,-1.50
2018-03-18T12:40:52.660Z,-1.50
2018-03-18T12:43:31.240Z,-1.30
2018-03-18T12:45:59.691Z,-1.40
2018-03-18T12:48:27.437Z,-1.40
2018-03-18T12:50:55.137Z,-1.50
2018-03-18T12:53:23.644Z,-1.50
2018-03-18T12:55:51.298Z,-1.60
2018-03-18T12:58:19.008Z,-1.60
2018-03-18T13:00:46.829Z,-1.60
2018-03-18T13:03:14.492Z,-1.70
2018-03-18T13:05:42.271Z,-1.60
2018-03-18T13:08:09.972Z,-1.60
2018-03-18T13:10:37.640Z,-1.70
2018-03-18T13:13:05.381Z,-1.80
2018-03-18T13:15:33.084Z,-1.80
2018-03-18T13:18:01.508Z,-1.90
2018-03-18T13:20:29.274Z,-2.00
2018-03-18T13:22:56.987Z,-1.90
2018-03-18T13:25:25.537Z,-1.80
2018-03-18T13:27:53.335Z,-1.80
2018-03-18T13:30:21.086Z,-1.70
2018-03-18T13:32:48.743Z,-1.60
2018-03-18T13:35:16.498Z,-1.60
2018-03-18T13:37:44.944Z,-1.50
2018-03-18T13:40:12.620Z,-1.50
2018-03-18T13:42:40.428Z,-1.60
2018-03-18T13:45:08.139Z,-1.70
2018-03-18T13:47:35.922Z,-1.60
2018-03-18T13:50:03.692Z,-1.60
2018-03-18T13:52:32.220Z,-1.60
2018-03-18T13:54:59.883Z,-1.60
2018-03-18T13:57:27.675Z,-1.40
2018-03-18T13:59:55.364Z,-1.40
2018-03-18T14:02:23.004Z,-1.50
2018-03-18T14:04:50.913Z,-1.60
2018-03-18T14:07:18.730Z,-1.70
2018-03-18T14:09:46.448Z,-1.80
2018-03-18T14:12:14.440Z,-1.80
2018-03-18T14:14:42.538Z,-1.90
2018-03-18T14:17:10.279Z,-2.00
2018-03-18T14:19:38.243Z,-2.00
2018-03-18T14:22:06.125Z,-1.80
2018-03-18T14:24:34.928Z,-1.90
2018-03-18T14:27:03.005Z,-1.90
2018-03-18T14:29:32.517Z,-1.80
2018-03-18T14:32:00.945Z,-1.70
2018-03-18T14:34:28.705Z,-1.70
2018-03-18T14:36:57.181Z,-1.80
2018-03-18T14:39:24.872Z,-1.70
2018-03-18T14:41:53.524Z,-1.80
2018-03-18T14:44:22.008Z,-1.80
2018-03-18T14:46:49.692Z,-1.80
2018-03-18T14:49:17.403Z,-1.80
2018-03-18T14:51:45.090Z,-1.60
2018-03-18T14:54:12.769Z,-1.60
2018-03-18T14:56:40.480Z,-1.80
2018-03-18T14:59:08.858Z,-1.70
2018-03-18T15:01:36.571Z,-1.80
2018-03-18T15:04:04.412Z,-1.80
2018-03-18T15:06:32.973Z,-1.80
2018-03-18T15:09:00.600Z,-1.80
2018-03-18T15:11:29.903Z,-1.90
2018-03-18T15:13:58.256Z,-1.90
2018-03-18T15:16:27.994Z,-1.90
2018-03-18T15:18:56.349Z,-2.00
2018-03-18T15:21:25.473Z,-1.90
2018-03-18T15:23:53.632Z,-2.00
2018-03-18T15:26:24.957Z,-1.90
2018-03-18T15:28:53.913Z,-2.00
2018-03-18T15:31:23.502Z,-2.10
2018-03-18T15:33:52.191Z,-2.00
2018-03-18T15:36:20.568Z,-2.00
2018-03-18T15:38:49.041Z,-1.90
2018-03-18T15:41:17.282Z,-1.90
2018-03-18T15:43:45.839Z,-2.00
2018-03-18T15:46:13.525Z,-2.00
2018-03-18T15:48:41.988Z,-1.90
2018-03-18T15:51:09.688Z,-2.00
2018-03-18T15:53:37.398Z,-1.90
2018-03-18T15:56:05.215Z,-2.00
2018-03-18T15:58:33.539Z,-1.90
2018-03-18T16:01:01.577Z,-1.90
2018-03-18T16:03:30.415Z,-1.90
2018-03-18T16:05:58.736Z,-1.90
2018-03-18T16:08:26.696Z,-2.00
2018-03-18T16:10:55.085Z,-2.00
2018-03-18T16:13:24.341Z,-1.90
2018-03-18T16:15:53.274Z,-2.00
2018-03-18T16:18:22.462Z,-2.00
2018-03-18T16:20:50.947Z,-2.00
2018-03-18T16:23:20.056Z,-2.10
2018-03-18T16:25:48.143Z,-2.10
2018-03-18T16:28:16.628Z,-2.10
2018-03-18T16:30:56.931Z,-2.10
2018-03-18T16:33:26.884Z,-2.10
2018-03-18T16:35:54.730Z,-2.10
2018-03-18T16:38:23.990Z,-2.10
2018-03-18T16:40:52.026Z,-2.10
2018-03-18T16:43:20.819Z,-2.10
2018-03-18T16:45:49.388Z,-2.00
2018-03-18T16:48:17.112Z,-2.00
2018-03-18T16:50:46.244Z,-2.00
2018-03-18T16:53:13.982Z,-2.00
2018-03-18T16:55:41.681Z,-2.00
2018-03-18T16:58:09.545Z,-2.00
2018-03-18T17:00:38.338Z,-2.00
2018-03-18T17:03:06.289Z,-2.10
2018-03-18T17:05:34.113Z,-2.10
2018-03-18T17:08:01.885Z,-2.10
2018-03-18T17:10:30.446Z,-2.10
2018-03-18T17:12:59.042Z,-2.10
2018-03-18T17:15:27.505Z,-2.20
2018-03-18T17:17:55.354Z,-2.20
2018-03-18T17:20:23.104Z,-2.30
2018-03-18T17:22:51.623Z,-2.20
2018-03-18T17:25:19.617Z,-2.20
2018-03-18T17:27:47.304Z,-2.20
2018-03-18T17:30:15.097Z,-2.10
2018-03-18T17:32:42.905Z,-2.10
2018-03-18T17:35:10.687Z,-2.10
2018-03-18T17:37:38.521Z,-2.10
2018-03-18T17:40:06.444Z,-2.20
2018-03-18T17:42:34.240Z,-2.20
2018-03-18T17:45:13.793Z,-2.20
2018-03-18T17:47:53.573Z,-2.20
2018-03-18T17:50:33.401Z,-2.20
2018-03-18T17:53:13.224Z,-2.20
2018-03-18T17:55:41.134Z,-2.20
2018-03-18T17:58:09.995Z,-2.30
2018-03-18T18:00:38.701Z,-2.30
2018-03-18T18:03:06.540Z,-2.30
2018-03-18T18:05:34.399Z,-2.20
2018-03-18T18:08:02.282Z,-2.30
2018-03-18T18:10:31.766Z,-2.30
2018-03-18T18:12:59.459Z,-2.30
2018-03-18T18:15:28.394Z,-2.40
2018-03-18T18:17:56.139Z,-2.40
2018-03-18T18:20:24.648Z,-2.40
2018-03-18T18:22:52.432Z,-2.40
2018-03-18T18:25:21.148Z,-2.40
2018-03-18T18:27:49.077Z,-2.40
2018-03-18T18:30:17.011Z,-2.30
2018-03-18T18:32:44.969Z,-2.40
2018-03-18T18:35:12.830Z,-2.40
2018-03-18T18:37:40.930Z,-2.40
2018-03-18T18:40:08.812Z,-2.40
2018-03-18T18:42:36.704Z,-2.40
2018-03-18T18:45:06.011Z,-2.60
2018-03-18T18:47:33.995Z,-2.60
2018-03-18T18:50:01.922Z,-2.50
2018-03-18T18:52:29.858Z,-2.50
2018-03-18T18:54:57.803Z,-2.50
2018-03-18T18:57:25.677Z,-2.50
2018-03-18T18:59:53.555Z,-2.50
2018-03-18T19:02:21.620Z,-2.60
2018-03-18T19:04:49.388Z,-2.50
2018-03-18T19:07:17.145Z,-2.60
2018-03-18T19:09:45.081Z,-2.60
2018-03-18T19:12:13.744Z,-2.60
2018-03-18T19:14:41.641Z,-2.60
2018-03-18T19:17:09.438Z,-2.60
2018-03-18T19:19:37.124Z,-2.60
2018-03-18T19:22:04.799Z,-2.60
2018-03-18T19:24:32.695Z,-2.50
2018-03-18T19:27:00.516Z,-2.60
2018-03-18T19:29:28.247Z,-2.70
2018-03-18T19:31:57.073Z,-2.70
2018-03-18T19:34:25.796Z,-2.70
2018-03-18T19:36:53.738Z,-2.70
2018-03-18T19:39:21.534Z,-2.70
2018-03-18T19:41:53.878Z,-2.70
2018-03-18T19:44:23.178Z,-2.70
2018-03-18T19:46:51.101Z,-2.80
2018-03-18T19:49:23.334Z,-2.80
2018-03-18T19:51:54.172Z,-2.80
2018-03-18T19:54:38.784Z,-2.80
2018-03-18T19:57:08.767Z,-2.80
2018-03-18T19:59:38.579Z,-2.80
2018-03-18T20:02:06.492Z,-2.80
2018-03-18T20:04:39.578Z,-2.80
2018-03-18T20:07:11.166Z,-2.80
2018-03-18T20:09:41.441Z,-2.80
2018-03-18T20:12:11.595Z,-2.80
2018-03-18T20:14:41.709Z,-2.70
2018-03-18T20:17:14.096Z,-2.70
2018-03-18T20:19:46.084Z,-2.70
2018-03-18T20:22:29.364Z,-2.80
2018-03-18T20:24:59.222Z,-2.80
2018-03-18T20:27:34.095Z,-2.80
2018-03-18T20:30:12.632Z,-2.70
2018-03-18T20:32:40.512Z,-2.80
2018-03-18T20:35:08.192Z,-2.80
2018-03-18T20:37:35.897Z,-2.80
2018-03-18T20:40:04.530Z,-2.90
2018-03-18T20:42:32.237Z,-2.90
2018-03-18T20:45:00.668Z,-2.80
2018-03-18T20:47:28.439Z,-2.80
2018-03-18T20:49:56.325Z,-2.80
2018-03-18T20:52:24.911Z,-2.90
2018-03-18T20:54:53.468Z,-2.90
2018-03-18T20:57:21.276Z,-3.00
2018-03-18T20:59:49.084Z,-2.90
2018-03-18T21:02:16.865Z,-3.00
2018-03-18T21:04:44.648Z,-2.90
2018-03-18T21:07:12.337Z,-2.90
2018-03-18T21:09:40.037Z,-2.90
2018-03-18T21:12:07.761Z,-3.00
2018-03-18T21:14:35.495Z,-2.90
2018-03-18T21:17:04.001Z,-3.00
2018-03-18T21:19:31.725Z,-3.00
2018-03-18T21:21:59.512Z,-3.00
2018-03-18T21:24:27.462Z,-3.00
2018-03-18T21:26:56.014Z,-3.10
2018-03-18T21:29:23.785Z,-3.10
2018-03-18T21:31:51.736Z,-3.10
2018-03-18T21:34:19.597Z,-3.10
2018-03-18T21:36:47.348Z,-3.10
2018-03-18T21:39:15.071Z,-3.10
2018-03-18T21:41:42.800Z,-3.10
2018-03-18T21:44:10.495Z,-3.00
2018-03-18T21:46:39.476Z,-3.00
2018-03-18T21:49:07.283Z,-3.00
2018-03-18T21:51:35.014Z,-3.10
2018-03-18T21:54:03.499Z,-3.10
2018-03-18T21:56:32.946Z,-3.20
2018-03-18T21:59:00.652Z,-3.20
2018-03-18T22:01:29.136Z,-3.20
2018-03-18T22:03:56.936Z,-3.20
2018-03-18T22:06:24.955Z,-3.10
2018-03-18T22:08:53.436Z,-3.10
2018-03-18T22:11:21.906Z,-3.10
2018-03-18T22:13:49.598Z,-3.10
2018-03-18T22:16:17.335Z,-3.00
2018-03-18T22:18:45.816Z,-3.10
2018-03-18T22:21:14.324Z,-3.10
2018-03-18T22:23:42.059Z,-3.10
2018-03-18T22:26:10.544Z,-3.10
2018-03-18T22:28:39.000Z,-3.20
2018-03-18T22:31:06.704Z,-3.20
2018-03-18T22:33:34.435Z,-3.20
2018-03-18T22:36:02.883Z,-3.30
2018-03-18T22:38:30.659Z,-3.30
2018-03-18T22:40:58.477Z,-3.30
2018-03-18T22:43:27.085Z,-3.20
2018-03-18T22:45:54.929Z,-3.30
2018-03-18T22:48:22.659Z,-3.30
2018-03-18T22:50:51.083Z,-3.20
2018-03-18T22:53:18.799Z,-3.20
2018-03-18T22:55:47.279Z,-3.20
2018-03-18T22:58:15.726Z,-3.30
2018-03-18T23:00:43.420Z,-3.30
2018-03-18T23:03:11.119Z,-3.30
2018-03-18T23:05:38.797Z,-3.30
2018-03-18T23:08:06.506Z,-3.30
2018-03-18T23:10:34.220Z,-3.30
2018-03-18T23:13:01.891Z,-3.30
2018-03-18T23:15:29.639Z,-3.30
2018-03-18T23:17:57.329Z,-3.40
2018-03-18T23:20:25.696Z,-3.40
2018-03-18T23:22:53.400Z,-3.30
2018-03-18T23:25:21.086Z,-3.40
2018-03-18T23:27:48.732Z,-3.40
2018-03-18T23:30:16.455Z,-3.40
2018-03-18T23:32:44.135Z,-3.40
2018-03-18T23:35:11.828Z,-3.40
2018-03-18T23:37:39.561Z,-3.40
2018-03-18T23:40:07.339Z,-3.40
2018-03-18T23:42:35.043Z,-3.40
2018-03-18T23:45:02.732Z,-3.30
2018-03-18T23:47:31.208Z,-3.30
2018-03-18T23:49:59.646Z,-3.30
2018-03-18T23:52:27.341Z,-3.30
2018-03-18T23:54:55.004Z,-3.30
2018-03-18T23:57:23.444Z,-3.30
2018-03-18T23:59:51.148Z,-3.40
